Terminal Aerodrome Forecast
Issued by NWS

Home | Current Version | Previous Version | Text Only | Print | Product List | Glossary On
Versions: 1 2 3 4 5 6 7 8 9 10 11 12 13 14 15 16 17 18 19 20 21 22 23 24 25 26 27 28 29 30 31 32 33 34 35 36 37 38 39 40 41 42 43 44 45 46 47 48 49 50
000
FTUS45 KVEF 010326 AAE
TAFLAS
TAF AMD
KLAS 010326Z 0103/0124 22010KT P6SM SCT100 SCT150 BKN220
     FM010400 13010KT P6SM SCT100 SCT150 BKN220
     FM010600 18010KT P6SM SCT100 SCT150 BKN220
     FM011300 20008KT P6SM VCTS SCT090CB BKN150 PROB30 0114/0119
      VRB20G35KT 3SM TSRA BKN080CB
     FM011900 15010KT P6SM VCTS SCT090CB BKN150=

USA.gov is the U.S. government's official web portal to all federal, state and local government web resources and services.